sensor_id;sensor_type;location;lat;lon;timestamp;pressure;altitude;pressure_sealevel;temperature;humidity
78210;BME280;67485;48.816;9.930;2024-03-08T00:02:07;96789.94;;;0.95;97.59
78210;BME280;67485;48.816;9.930;2024-03-08T00:04:33;96795.16;;;0.98;97.14
78210;BME280;67485;48.816;9.930;2024-03-08T00:06:59;96783.94;;;0.96;97.33
78210;BME280;67485;48.816;9.930;2024-03-08T00:09:24;96787.31;;;0.89;97.22
78210;BME280;67485;48.816;9.930;2024-03-08T00:11:52;96789.88;;;0.86;97.34
78210;BME280;67485;48.816;9.930;2024-03-08T00:14:18;96789.88;;;0.86;97.84
78210;BME280;67485;48.816;9.930;2024-03-08T00:16:44;96788.13;;;0.85;97.96
78210;BME280;67485;48.816;9.930;2024-03-08T00:19:09;96787.22;;;0.83;97.89
78210;BME280;67485;48.816;9.930;2024-03-08T00:21:35;96792.44;;;0.84;97.75
78210;BME280;67485;48.816;9.930;2024-03-08T00:24:01;96786.31;;;0.77;97.87
78210;BME280;67485;48.816;9.930;2024-03-08T00:26:30;96789.81;;;0.83;97.66
78210;BME280;67485;48.816;9.930;2024-03-08T00:28:55;96795.88;;;0.86;97.72
78210;BME280;67485;48.816;9.930;2024-03-08T00:31:21;96778.63;;;0.82;97.62
78210;BME280;67485;48.816;9.930;2024-03-08T00:33:47;96786.38;;;0.80;96.94
78210;BME280;67485;48.816;9.930;2024-03-08T00:36:12;96772.50;;;0.72;97.14
78210;BME280;67485;48.816;9.930;2024-03-08T00:38:38;96767.56;;;0.91;96.03
78210;BME280;67485;48.816;9.930;2024-03-08T00:41:04;96767.56;;;0.91;95.58
78210;BME280;67485;48.816;9.930;2024-03-08T00:43:30;96764.06;;;0.86;95.39
78210;BME280;67485;48.816;9.930;2024-03-08T00:45:55;96757.09;;;0.77;95.40
78210;BME280;67485;48.816;9.930;2024-03-08T00:48:23;96756.13;;;0.67;96.31
78210;BME280;67485;48.816;9.930;2024-03-08T00:50:49;96758.69;;;0.67;96.18
78210;BME280;67485;48.816;9.930;2024-03-08T00:53:14;96752.63;;;0.62;96.96
78210;BME280;67485;48.816;9.930;2024-03-08T00:55:40;96751.78;;;0.63;96.39
78210;BME280;67485;48.816;9.930;2024-03-08T00:58:06;96753.47;;;0.62;96.68
78210;BME280;67485;48.816;9.930;2024-03-08T01:00:31;96753.47;;;0.61;96.98
78210;BME280;67485;48.816;9.930;2024-03-08T01:02:57;96748.38;;;0.66;96.95
78210;BME280;67485;48.816;9.930;2024-03-08T01:05:24;96748.44;;;0.72;96.65
78210;BME280;67485;48.816;9.930;2024-03-08T01:07:50;96738.00;;;0.61;96.36
78210;BME280;67485;48.816;9.930;2024-03-08T01:10:16;96739.63;;;0.53;96.74
78210;BME280;67485;48.816;9.930;2024-03-08T01:12:41;96741.28;;;0.47;96.97
78210;BME280;67485;48.816;9.930;2024-03-08T01:15:11;96731.00;;;0.51;97.51
78210;BME280;67485;48.816;9.930;2024-03-08T01:17:37;96729.34;;;0.56;97.35
78210;BME280;67485;48.816;9.930;2024-03-08T01:20:03;96726.78;;;0.57;97.22
78210;BME280;67485;48.816;9.930;2024-03-08T01:22:29;96726.75;;;0.54;97.08
78210;BME280;67485;48.816;9.930;2024-03-08T01:24:56;96717.34;;;0.58;96.82
78210;BME280;67485;48.816;9.930;2024-03-08T01:27:22;96720.72;;;0.54;97.22
78210;BME280;67485;48.816;9.930;2024-03-08T01:29:47;96722.44;;;0.52;97.27
78210;BME280;67485;48.816;9.930;2024-03-08T01:32:13;96722.44;;;0.52;97.53
78210;BME280;67485;48.816;9.930;2024-03-08T01:34:40;96718.06;;;0.46;97.89
78210;BME280;67485;48.816;9.930;2024-03-08T01:37:06;96712.06;;;0.48;97.82
78210;BME280;67485;48.816;9.930;2024-03-08T01:39:32;96711.22;;;0.50;98.03
78210;BME280;67485;48.816;9.930;2024-03-08T01:41:58;96703.53;;;0.53;97.49
78210;BME280;67485;48.816;9.930;2024-03-08T01:44:23;96700.91;;;0.50;97.63
78210;BME280;67485;48.816;9.930;2024-03-08T01:46:51;96694.94;;;0.54;97.66
78210;BME280;67485;48.816;9.930;2024-03-08T01:49:19;96696.66;;;0.55;97.46
78210;BME280;67485;48.816;9.930;2024-03-08T01:51:47;96694.03;;;0.50;97.24
78210;BME280;67485;48.816;9.930;2024-03-08T01:54:15;96695.81;;;0.56;97.40
78210;BME280;67485;48.816;9.930;2024-03-08T01:56:42;96696.66;;;0.52;97.12
78210;BME280;67485;48.816;9.930;2024-03-08T01:59:08;96680.34;;;0.54;96.70
78210;BME280;67485;48.816;9.930;2024-03-08T02:01:34;96676.09;;;0.58;96.29
78210;BME280;67485;48.816;9.930;2024-03-08T02:04:00;96678.63;;;0.56;96.17
78210;BME280;67485;48.816;9.930;2024-03-08T02:06:25;96665.75;;;0.58;96.63
78210;BME280;67485;48.816;9.930;2024-03-08T02:08:51;96664.03;;;0.60;96.24
78210;BME280;67485;48.816;9.930;2024-03-08T02:11:17;96669.25;;;0.66;96.06
78210;BME280;67485;48.816;9.930;2024-03-08T02:13:44;96664.88;;;0.59;95.40
78210;BME280;67485;48.816;9.930;2024-03-08T02:16:10;96661.41;;;0.54;95.95
78210;BME280;67485;48.816;9.930;2024-03-08T02:18:36;96662.34;;;0.62;95.95
78210;BME280;67485;48.816;9.930;2024-03-08T02:21:03;96655.44;;;0.58;95.70
78210;BME280;67485;48.816;9.930;2024-03-08T02:23:29;96650.31;;;0.61;95.68
78210;BME280;67485;48.816;9.930;2024-03-08T02:25:56;96654.63;;;0.65;95.64
78210;BME280;67485;48.816;9.930;2024-03-08T02:28:23;96652.00;;;0.59;95.19
78210;BME280;67485;48.816;9.930;2024-03-08T02:30:49;96647.72;;;0.59;95.08
78210;BME280;67485;48.816;9.930;2024-03-08T02:33:25;96643.28;;;0.47;95.82
78210;BME280;67485;48.816;9.930;2024-03-08T02:35:51;96647.59;;;0.47;96.07
78210;BME280;67485;48.816;9.930;2024-03-08T02:38:19;96644.19;;;0.50;96.20
78210;BME280;67485;48.816;9.930;2024-03-08T02:40:46;96640.75;;;0.49;96.25
78210;BME280;67485;48.816;9.930;2024-03-08T02:43:13;96646.81;;;0.54;95.72
78210;BME280;67485;48.816;9.930;2024-03-08T02:45:40;96639.03;;;0.51;96.00
78210;BME280;67485;48.816;9.930;2024-03-08T02:48:07;96640.81;;;0.55;95.68
78210;BME280;67485;48.816;9.930;2024-03-08T02:50:33;96641.72;;;0.62;95.17
78210;BME280;67485;48.816;9.930;2024-03-08T02:53:00;96641.72;;;0.62;95.30
78210;BME280;67485;48.816;9.930;2024-03-08T02:55:27;96631.38;;;0.59;95.18
78210;BME280;67485;48.816;9.930;2024-03-08T02:57:53;96632.25;;;0.58;94.93
78210;BME280;67485;48.816;9.930;2024-03-08T03:00:20;96633.94;;;0.59;95.16
78210;BME280;67485;48.816;9.930;2024-03-08T03:02:49;96621.94;;;0.58;95.34
78210;BME280;67485;48.816;9.930;2024-03-08T03:05:25;96628.78;;;0.56;94.80
78210;BME280;67485;48.816;9.930;2024-03-08T03:07:51;96623.63;;;0.56;95.28
78210;BME280;67485;48.816;9.930;2024-03-08T03:10:17;96621.03;;;0.56;95.33
78210;BME280;67485;48.816;9.930;2024-03-08T03:12:43;96620.97;;;0.50;95.61
78210;BME280;67485;48.816;9.930;2024-03-08T03:15:12;96617.50;;;0.47;95.95
78210;BME280;67485;48.816;9.930;2024-03-08T03:17:39;96625.28;;;0.51;95.94
78210;BME280;67485;48.816;9.930;2024-03-08T03:20:08;96619.31;;;0.55;95.54
78210;BME280;67485;48.816;9.930;2024-03-08T03:22:49;96612.47;;;0.60;95.20
78210;BME280;67485;48.816;9.930;2024-03-08T03:25:20;96618.47;;;0.56;95.40
78210;BME280;67485;48.816;9.930;2024-03-08T03:27:52;96621.03;;;0.53;95.39
78210;BME280;67485;48.816;9.930;2024-03-08T03:30:17;96609.00;;;0.55;95.90
78210;BME280;67485;48.816;9.930;2024-03-08T03:32:50;96612.41;;;0.54;95.54
78210;BME280;67485;48.816;9.930;2024-03-08T03:35:20;96610.78;;;0.62;95.79
78210;BME280;67485;48.816;9.930;2024-03-08T03:37:48;96622.81;;;0.63;95.72
78210;BME280;67485;48.816;9.930;2024-03-08T03:40:31;96612.50;;;0.63;95.71
78210;BME280;67485;48.816;9.930;2024-03-08T03:42:57;96608.22;;;0.63;95.72
78210;BME280;67485;48.816;9.930;2024-03-08T03:45:23;96602.19;;;0.64;96.11
78210;BME280;67485;48.816;9.930;2024-03-08T03:47:49;96602.19;;;0.63;95.86
78210;BME280;67485;48.816;9.930;2024-03-08T03:50:15;96600.47;;;0.65;96.57
78210;BME280;67485;48.816;9.930;2024-03-08T03:52:41;96588.47;;;0.67;96.15
78210;BME280;67485;48.816;9.930;2024-03-08T03:55:08;96584.16;;;0.68;96.06
78210;BME280;67485;48.816;9.930;2024-03-08T03:57:33;96592.78;;;0.70;96.24
78210;BME280;67485;48.816;9.930;2024-03-08T03:59:59;96591.94;;;0.69;96.38
78210;BME280;67485;48.816;9.930;2024-03-08T04:02:25;96588.53;;;0.73;96.03
78210;BME280;67485;48.816;9.930;2024-03-08T04:04:52;96590.25;;;0.74;96.02
78210;BME280;67485;48.816;9.930;2024-03-08T04:07:20;96593.69;;;0.75;95.94
78210;BME280;67485;48.816;9.930;2024-03-08T04:09:46;96594.59;;;0.80;95.97
78210;BME280;67485;48.816;9.930;2024-03-08T04:12:12;96596.31;;;0.83;95.65
78210;BME280;67485;48.816;9.930;2024-03-08T04:14:40;96582.56;;;0.79;95.88
78210;BME280;67485;48.816;9.930;2024-03-08T04:17:07;96586.84;;;0.78;95.34
78210;BME280;67485;48.816;9.930;2024-03-08T04:19:35;96587.72;;;0.79;95.69
78210;BME280;67485;48.816;9.930;2024-03-08T04:22:01;96589.44;;;0.80;95.83
78210;BME280;67485;48.816;9.930;2024-03-08T04:24:27;96589.41;;;0.78;95.83
78210;BME280;67485;48.816;9.930;2024-03-08T04:26:53;96582.59;;;0.85;95.32
78210;BME280;67485;48.816;9.930;2024-03-08T04:29:19;96580.03;;;0.87;95.23
78210;BME280;67485;48.816;9.930;2024-03-08T04:31:44;96578.31;;;0.89;95.23
78210;BME280;67485;48.816;9.930;2024-03-08T04:34:10;96580.03;;;0.87;94.83
78210;BME280;67485;48.816;9.930;2024-03-08T04:36:36;96578.31;;;0.86;95.30
78210;BME280;67485;48.816;9.930;2024-03-08T04:39:02;96578.31;;;0.86;95.30
78210;BME280;67485;48.816;9.930;2024-03-08T04:41:28;96587.78;;;0.87;95.42
78210;BME280;67485;48.816;9.930;2024-03-08T04:43:56;96573.16;;;0.89;94.80
78210;BME280;67485;48.816;9.930;2024-03-08T04:46:23;96576.63;;;0.91;95.21
78210;BME280;67485;48.816;9.930;2024-03-08T04:48:49;96571.47;;;0.91;94.83
78210;BME280;67485;48.816;9.930;2024-03-08T04:51:15;96574.03;;;0.89;94.65
78210;BME280;67485;48.816;9.930;2024-03-08T04:53:41;96570.59;;;0.90;94.80
78210;BME280;67485;48.816;9.930;2024-03-08T04:56:07;96570.56;;;0.87;94.27
78210;BME280;67485;48.816;9.930;2024-03-08T04:58:35;96558.56;;;0.92;94.40
78210;BME280;67485;48.816;9.930;2024-03-08T05:01:02;96568.00;;;0.89;94.59
78210;BME280;67485;48.816;9.930;2024-03-08T05:03:27;96561.09;;;0.85;95.43
78210;BME280;67485;48.816;9.930;2024-03-08T05:05:53;96555.09;;;0.87;95.15
78210;BME280;67485;48.816;9.930;2024-03-08T05:08:19;96553.34;;;0.85;95.05
78210;BME280;67485;48.816;9.930;2024-03-08T05:10:45;96555.94;;;0.85;95.93
78210;BME280;67485;48.816;9.930;2024-03-08T05:13:12;96550.75;;;0.82;95.46
78210;BME280;67485;48.816;9.930;2024-03-08T05:15:38;96561.09;;;0.85;95.48
78210;BME280;67485;48.816;9.930;2024-03-08T05:18:05;96555.94;;;0.85;95.59
78210;BME280;67485;48.816;9.930;2024-03-08T05:20:30;96555.94;;;0.85;95.61
78210;BME280;67485;48.816;9.930;2024-03-08T05:22:56;96555.88;;;0.80;95.23
78210;BME280;67485;48.816;9.930;2024-03-08T05:25:25;96547.31;;;0.83;95.40
78210;BME280;67485;48.816;9.930;2024-03-08T05:27:52;96534.44;;;0.84;95.43
78210;BME280;67485;48.816;9.930;2024-03-08T05:30:18;96542.19;;;0.89;95.75
78210;BME280;67485;48.816;9.930;2024-03-08T05:32:43;96542.19;;;0.86;94.41
78210;BME280;67485;48.816;9.930;2024-03-08T05:35:12;96542.19;;;0.86;94.50
78210;BME280;67485;48.816;9.930;2024-03-08T05:37:38;96528.44;;;0.90;94.43
78210;BME280;67485;48.816;9.930;2024-03-08T05:40:05;96532.72;;;0.85;94.13
78210;BME280;67485;48.816;9.930;2024-03-08T05:42:35;96529.28;;;0.84;95.09
78210;BME280;67485;48.816;9.930;2024-03-08T05:45:02;96537.03;;;0.86;95.20
78210;BME280;67485;48.816;9.930;2024-03-08T05:47:28;96531.03;;;0.88;94.95
78210;BME280;67485;48.816;9.930;2024-03-08T05:49:54;96530.13;;;0.83;95.32
78210;BME280;67485;48.816;9.930;2024-03-08T05:52:20;96530.13;;;0.82;96.00
78210;BME280;67485;48.816;9.930;2024-03-08T05:54:45;96526.66;;;0.83;95.87
78210;BME280;67485;48.816;9.930;2024-03-08T05:57:12;96526.66;;;0.83;95.27
78210;BME280;67485;48.816;9.930;2024-03-08T05:59:39;96530.13;;;0.83;94.63
78210;BME280;67485;48.816;9.930;2024-03-08T06:02:05;96538.72;;;0.82;94.75
78210;BME280;67485;48.816;9.930;2024-03-08T06:04:31;96529.25;;;0.78;93.86
78210;BME280;67485;48.816;9.930;2024-03-08T06:06:57;96535.34;;;0.88;94.87
78210;BME280;67485;48.816;9.930;2024-03-08T06:09:24;96527.59;;;0.88;94.94
78210;BME280;67485;48.816;9.930;2024-03-08T06:11:51;96537.03;;;0.86;94.95
78210;BME280;67485;48.816;9.930;2024-03-08T06:14:17;96539.59;;;0.84;94.96
78210;BME280;67485;48.816;9.930;2024-03-08T06:16:45;96538.75;;;0.87;95.14
78210;BME280;67485;48.816;9.930;2024-03-08T06:19:10;96528.41;;;0.84;95.52
78210;BME280;67485;48.816;9.930;2024-03-08T06:21:37;96527.56;;;0.85;95.66
78210;BME280;67485;48.816;9.930;2024-03-08T06:24:03;96521.53;;;0.84;95.07
78210;BME280;67485;48.816;9.930;2024-03-08T06:26:29;96533.56;;;0.80;95.16
78210;BME280;67485;48.816;9.930;2024-03-08T06:28:55;96526.66;;;0.78;94.09
78210;BME280;67485;48.816;9.930;2024-03-08T06:31:21;96526.75;;;0.92;94.79
78210;BME280;67485;48.816;9.930;2024-03-08T06:33:46;96537.88;;;0.83;93.74
78210;BME280;67485;48.816;9.930;2024-03-08T06:36:16;96538.72;;;0.82;94.04
78210;BME280;67485;48.816;9.930;2024-03-08T06:38:47;96537.81;;;0.78;94.85
78210;BME280;67485;48.816;9.930;2024-03-08T06:41:13;96529.25;;;0.83;94.13
78210;BME280;67485;48.816;9.930;2024-03-08T06:43:46;96532.72;;;0.85;94.42
78210;BME280;67485;48.816;9.930;2024-03-08T06:46:16;96526.75;;;0.92;94.29
78210;BME280;67485;48.816;9.930;2024-03-08T06:48:42;96528.50;;;0.96;94.11
78210;BME280;67485;48.816;9.930;2024-03-08T06:51:08;96526.72;;;0.89;94.57
78210;BME280;67485;48.816;9.930;2024-03-08T06:53:33;96528.50;;;0.97;94.57
78210;BME280;67485;48.816;9.930;2024-03-08T06:56:02;96532.78;;;0.94;94.03
78210;BME280;67485;48.816;9.930;2024-03-08T06:58:28;96534.41;;;0.81;94.09
78210;BME280;67485;48.816;9.930;2024-03-08T07:00:54;96533.56;;;0.84;94.10
78210;BME280;67485;48.816;9.930;2024-03-08T07:03:24;96533.56;;;0.80;94.25
78210;BME280;67485;48.816;9.930;2024-03-08T07:05:49;96535.28;;;0.82;94.53
78210;BME280;67485;48.816;9.930;2024-03-08T07:08:15;96524.97;;;0.82;94.78
78210;BME280;67485;48.816;9.930;2024-03-08T07:10:42;96530.13;;;0.85;94.48
78210;BME280;67485;48.816;9.930;2024-03-08T07:13:08;96531.88;;;0.86;94.45
78210;BME280;67485;48.816;9.930;2024-03-08T07:15:34;96530.13;;;0.85;94.24
78210;BME280;67485;48.816;9.930;2024-03-08T07:18:01;96531.81;;;0.79;94.46
78210;BME280;67485;48.816;9.930;2024-03-08T07:20:26;96531.81;;;0.83;94.36
78210;BME280;67485;48.816;9.930;2024-03-08T07:22:54;96519.84;;;0.88;94.58
78210;BME280;67485;48.816;9.930;2024-03-08T07:25:20;96523.19;;;0.77;94.46
78210;BME280;67485;48.816;9.930;2024-03-08T07:27:52;96524.16;;;0.92;94.67
78210;BME280;67485;48.816;9.930;2024-03-08T07:30:18;96525.03;;;0.91;93.93
78210;BME280;67485;48.816;9.930;2024-03-08T07:33:04;96519.91;;;0.94;93.99
78210;BME280;67485;48.816;9.930;2024-03-08T07:35:30;96526.66;;;0.83;94.06
78210;BME280;67485;48.816;9.930;2024-03-08T07:37:56;96512.91;;;0.80;95.06
78210;BME280;67485;48.816;9.930;2024-03-08T07:40:22;96512.94;;;0.84;94.74
78210;BME280;67485;48.816;9.930;2024-03-08T07:42:49;96514.69;;;0.88;94.95
78210;BME280;67485;48.816;9.930;2024-03-08T07:45:15;96502.59;;;0.84;95.17
78210;BME280;67485;48.816;9.930;2024-03-08T07:47:42;96511.22;;;0.89;95.48
78210;BME280;67485;48.816;9.930;2024-03-08T07:50:08;96512.97;;;0.90;95.52
78210;BME280;67485;48.816;9.930;2024-03-08T07:52:34;96501.78;;;0.91;94.99
78210;BME280;67485;48.816;9.930;2024-03-08T07:55:02;96506.13;;;0.92;95.01
78210;BME280;67485;48.816;9.930;2024-03-08T07:57:29;96509.56;;;0.99;94.57
78210;BME280;67485;48.816;9.930;2024-03-08T07:59:55;96496.75;;;1.09;94.90
78210;BME280;67485;48.816;9.930;2024-03-08T08:02:21;96502.78;;;1.18;94.64
78210;BME280;67485;48.816;9.930;2024-03-08T08:04:47;96489.06;;;1.22;94.43
78210;BME280;67485;48.816;9.930;2024-03-08T08:07:13;96488.25;;;1.31;94.10
78210;BME280;67485;48.816;9.930;2024-03-08T08:09:40;96489.09;;;1.28;92.72
78210;BME280;67485;48.816;9.930;2024-03-08T08:12:08;96483.06;;;1.24;92.96
78210;BME280;67485;48.816;9.930;2024-03-08T08:14:38;96483.94;;;1.31;92.96
78210;BME280;67485;48.816;9.930;2024-03-08T08:17:04;96480.53;;;1.41;93.10
78210;BME280;67485;48.816;9.930;2024-03-08T08:19:30;96489.09;;;1.31;92.92
78210;BME280;67485;48.816;9.930;2024-03-08T08:21:57;96483.97;;;1.37;92.25
78210;BME280;67485;48.816;9.930;2024-03-08T08:24:23;96484.75;;;1.19;92.30
78210;BME280;67485;48.816;9.930;2024-03-08T08:26:49;96480.47;;;1.23;92.74
78210;BME280;67485;48.816;9.930;2024-03-08T08:29:14;96486.56;;;1.34;92.25
78210;BME280;67485;48.816;9.930;2024-03-08T08:31:40;96476.25;;;1.42;92.50
78210;BME280;67485;48.816;9.930;2024-03-08T08:34:05;96481.44;;;1.53;92.14
78210;BME280;67485;48.816;9.930;2024-03-08T08:36:32;96468.56;;;1.65;92.08
78210;BME280;67485;48.816;9.930;2024-03-08T08:38:59;96472.03;;;1.73;91.38
78210;BME280;67485;48.816;9.930;2024-03-08T08:41:25;96466.00;;;1.67;90.95
78210;BME280;67485;48.816;9.930;2024-03-08T08:43:52;96472.84;;;1.57;90.50
78210;BME280;67485;48.816;9.930;2024-03-08T08:46:18;96468.56;;;1.62;90.69
78210;BME280;67485;48.816;9.930;2024-03-08T08:48:44;96472.03;;;1.73;89.41
78210;BME280;67485;48.816;9.930;2024-03-08T08:51:11;96473.72;;;1.65;89.30
78210;BME280;67485;48.816;9.930;2024-03-08T08:53:41;96472.91;;;1.77;89.77
78210;BME280;67485;48.816;9.930;2024-03-08T08:56:15;96467.78;;;1.89;89.40
78210;BME280;67485;48.816;9.930;2024-03-08T08:58:44;96468.63;;;1.87;89.18
78210;BME280;67485;48.816;9.930;2024-03-08T09:01:10;96461.75;;;1.97;89.17
78210;BME280;67485;48.816;9.930;2024-03-08T09:03:37;96454.84;;;2.06;88.78
78210;BME280;67485;48.816;9.930;2024-03-08T09:06:12;96449.69;;;2.25;88.73
78210;BME280;67485;48.816;9.930;2024-03-08T09:08:39;96447.97;;;2.24;87.58
78210;BME280;67485;48.816;9.930;2024-03-08T09:11:05;96453.16;;;2.13;87.75
78210;BME280;67485;48.816;9.930;2024-03-08T09:13:31;96454.03;;;2.18;88.03
78210;BME280;67485;48.816;9.930;2024-03-08T09:15:57;96444.53;;;2.22;87.65
78210;BME280;67485;48.816;9.930;2024-03-08T09:18:22;96448.00;;;2.27;87.00
78210;BME280;67485;48.816;9.930;2024-03-08T09:20:49;96449.72;;;2.28;87.62
78210;BME280;67485;48.816;9.930;2024-03-08T09:23:19;96453.16;;;2.33;87.32
78210;BME280;67485;48.816;9.930;2024-03-08T09:25:45;96435.91;;;2.41;87.02
78210;BME280;67485;48.816;9.930;2024-03-08T09:28:12;96438.50;;;2.40;87.13
78210;BME280;67485;48.816;9.930;2024-03-08T09:30:38;96445.38;;;2.50;85.69
78210;BME280;67485;48.816;9.930;2024-03-08T09:33:05;96434.19;;;2.56;86.02
78210;BME280;67485;48.816;9.930;2024-03-08T09:35:31;96428.13;;;2.58;85.74
78210;BME280;67485;48.816;9.930;2024-03-08T09:37:57;96425.53;;;2.69;84.73
78210;BME280;67485;48.816;9.930;2024-03-08T09:40:23;96427.22;;;2.83;84.71
78210;BME280;67485;48.816;9.930;2024-03-08T09:42:51;96415.97;;;2.95;83.48
78210;BME280;67485;48.816;9.930;2024-03-08T09:45:19;96416.78;;;3.07;83.95
78210;BME280;67485;48.816;9.930;2024-03-08T09:47:47;96416.81;;;3.04;83.71
78210;BME280;67485;48.816;9.930;2024-03-08T09:50:14;96410.59;;;3.47;82.76
78210;BME280;67485;48.816;9.930;2024-03-08T09:52:48;96417.00;;;4.22;80.24
78210;BME280;67485;48.816;9.930;2024-03-08T09:55:15;96410.19;;;4.09;79.19
78210;BME280;67485;48.816;9.930;2024-03-08T09:57:43;96409.38;;;3.99;79.38
78210;BME280;67485;48.816;9.930;2024-03-08T10:00:28;96405.00;;;4.09;77.10
78210;BME280;67485;48.816;9.930;2024-03-08T10:02:53;96394.66;;;4.96;75.15
78210;BME280;67485;48.816;9.930;2024-03-08T10:05:19;96408.34;;;5.11;71.96
78210;BME280;67485;48.816;9.930;2024-03-08T10:07:47;96400.00;;;5.56;71.30
78210;BME280;67485;48.816;9.930;2024-03-08T10:10:13;96408.31;;;4.28;71.80
78210;BME280;67485;48.816;9.930;2024-03-08T10:12:38;96405.38;;;4.64;74.38
78210;BME280;67485;48.816;9.930;2024-03-08T10:15:08;96405.63;;;5.22;72.08
78210;BME280;67485;48.816;9.930;2024-03-08T10:17:34;96401.84;;;5.47;70.01
78210;BME280;67485;48.816;9.930;2024-03-08T10:20:00;96398.38;;;5.48;69.32
78210;BME280;67485;48.816;9.930;2024-03-08T10:22:26;96393.34;;;5.34;69.31
78210;BME280;67485;48.816;9.930;2024-03-08T10:24:52;96389.34;;;5.09;70.21
78210;BME280;67485;48.816;9.930;2024-03-08T10:27:18;96394.41;;;4.37;73.93
78210;BME280;67485;48.816;9.930;2024-03-08T10:29:51;96395.19;;;4.44;74.77
78210;BME280;67485;48.816;9.930;2024-03-08T10:32:17;96388.63;;;4.96;72.33
78210;BME280;67485;48.816;9.930;2024-03-08T10:34:43;96394.97;;;5.42;68.35
78210;BME280;67485;48.816;9.930;2024-03-08T10:37:15;96381.84;;;5.52;68.44
78210;BME280;67485;48.816;9.930;2024-03-08T10:39:48;96380.09;;;6.65;64.60
78210;BME280;67485;48.816;9.930;2024-03-08T10:42:22;96383.66;;;6.10;66.28
78210;BME280;67485;48.816;9.930;2024-03-08T10:45:06;96370.38;;;6.25;65.85
78210;BME280;67485;48.816;9.930;2024-03-08T10:47:40;96369.78;;;6.59;65.71
78210;BME280;67485;48.816;9.930;2024-03-08T10:50:19;96372.22;;;7.56;62.55
78210;BME280;67485;48.816;9.930;2024-03-08T10:52:52;96368.50;;;7.67;60.09
78210;BME280;67485;48.816;9.930;2024-03-08T10:55:19;96369.34;;;7.28;61.07
78210;BME280;67485;48.816;9.930;2024-03-08T10:57:46;96367.72;;;7.22;62.62
78210;BME280;67485;48.816;9.930;2024-03-08T11:00:13;96365.47;;;7.46;62.39
78210;BME280;67485;48.816;9.930;2024-03-08T11:02:43;96347.91;;;7.93;60.01
78210;BME280;67485;48.816;9.930;2024-03-08T11:05:46;96352.78;;;8.78;58.09
78210;BME280;67485;48.816;9.930;2024-03-08T11:10:54;96333.03;;;8.68;58.17
78210;BME280;67485;48.816;9.930;2024-03-08T11:13:41;96332.13;;;9.32;56.11
78210;BME280;67485;48.816;9.930;2024-03-08T11:16:09;96332.00;;;9.35;54.70
78210;BME280;67485;48.816;9.930;2024-03-08T11:18:35;96329.09;;;9.74;54.47
78210;BME280;67485;48.816;9.930;2024-03-08T11:21:06;96320.25;;;9.78;54.75
78210;BME280;67485;48.816;9.930;2024-03-08T11:23:38;96319.97;;;9.59;53.63
78210;BME280;67485;48.816;9.930;2024-03-08T11:26:21;96311.38;;;10.63;52.84
78210;BME280;67485;48.816;9.930;2024-03-08T11:28:49;96316.59;;;9.55;52.53
78210;BME280;67485;48.816;9.930;2024-03-08T11:31:24;96313.03;;;9.58;54.39
78210;BME280;67485;48.816;9.930;2024-03-08T11:33:51;96313.63;;;8.76;54.41
78210;BME280;67485;48.816;9.930;2024-03-08T11:36:23;96309.44;;;8.02;56.28
78210;BME280;67485;48.816;9.930;2024-03-08T11:38:51;96318.09;;;7.66;57.60
78210;BME280;67485;48.816;9.930;2024-03-08T11:41:22;96309.25;;;8.42;56.58
78210;BME280;67485;48.816;9.930;2024-03-08T11:43:49;96299.78;;;9.04;55.53
78210;BME280;67485;48.816;9.930;2024-03-08T11:46:16;96304.13;;;9.35;52.92
78210;BME280;67485;48.816;9.930;2024-03-08T11:48:44;96298.63;;;8.83;54.93
78210;BME280;67485;48.816;9.930;2024-03-08T11:51:14;96287.03;;;9.23;54.35
78210;BME280;67485;48.816;9.930;2024-03-08T11:53:40;96283.63;;;9.21;53.89
78210;BME280;67485;48.816;9.930;2024-03-08T11:56:14;96280.25;;;9.16;54.93
78210;BME280;67485;48.816;9.930;2024-03-08T11:58:40;96278.97;;;8.37;56.20
78210;BME280;67485;48.816;9.930;2024-03-08T12:01:07;96266.63;;;9.35;56.39
78210;BME280;67485;48.816;9.930;2024-03-08T12:03:40;96271.13;;;9.60;53.32
78210;BME280;67485;48.816;9.930;2024-03-08T12:06:11;96262.34;;;10.41;52.65
78210;BME280;67485;48.816;9.930;2024-03-08T12:08:39;96266.22;;;10.29;51.14
78210;BME280;67485;48.816;9.930;2024-03-08T12:11:05;96253.03;;;10.32;53.54
78210;BME280;67485;48.816;9.930;2024-03-08T12:13:33;96252.53;;;11.65;50.80
78210;BME280;67485;48.816;9.930;2024-03-08T12:16:02;96243.84;;;11.18;50.31
78210;BME280;67485;48.816;9.930;2024-03-08T12:18:38;96241.34;;;11.60;49.16
78210;BME280;67485;48.816;9.930;2024-03-08T12:21:04;96238.22;;;10.82;50.34
78210;BME280;67485;48.816;9.930;2024-03-08T12:23:33;96233.06;;;10.79;49.97
78210;BME280;67485;48.816;9.930;2024-03-08T12:26:22;96236.47;;;10.06;51.92
78210;BME280;67485;48.816;9.930;2024-03-08T12:28:48;96227.50;;;10.64;51.48
78210;BME280;67485;48.816;9.930;2024-03-08T12:31:16;96231.34;;;10.78;51.09
78210;BME280;67485;48.816;9.930;2024-03-08T12:33:54;96223.97;;;10.40;51.22
78210;BME280;67485;48.816;9.930;2024-03-08T12:36:25;96219.22;;;10.75;51.42
78210;BME280;67485;48.816;9.930;2024-03-08T12:38:51;96209.13;;;11.34;50.54
78210;BME280;67485;48.816;9.930;2024-03-08T12:41:20;96211.28;;;11.46;50.52
78210;BME280;67485;48.816;9.930;2024-03-08T12:43:47;96200.38;;;11.11;50.63
78210;BME280;67485;48.816;9.930;2024-03-08T12:46:19;96198.31;;;11.64;49.33
78210;BME280;67485;48.816;9.930;2024-03-08T12:48:46;96196.09;;;10.86;51.07
78210;BME280;67485;48.816;9.930;2024-03-08T12:51:17;96199.56;;;9.87;52.61
78210;BME280;67485;48.816;9.930;2024-03-08T12:53:44;96184.19;;;9.78;54.98
78210;BME280;67485;48.816;9.930;2024-03-08T12:56:10;96186.31;;;9.67;55.18
78210;BME280;67485;48.816;9.930;2024-03-08T12:58:36;96182.41;;;9.79;55.11
78210;BME280;67485;48.816;9.930;2024-03-08T13:01:03;96179.00;;;9.50;54.99
78210;BME280;67485;48.816;9.930;2024-03-08T13:03:30;96167.41;;;9.84;56.41
78210;BME280;67485;48.816;9.930;2024-03-08T13:05:59;96168.91;;;9.66;54.89
78210;BME280;67485;48.816;9.930;2024-03-08T13:08:25;96162.25;;;9.55;56.57
78210;BME280;67485;48.816;9.930;2024-03-08T13:10:53;96155.53;;;9.73;57.13
78210;BME280;67485;48.816;9.930;2024-03-08T13:13:19;96157.81;;;9.57;56.18
78210;BME280;67485;48.816;9.930;2024-03-08T13:15:45;96151.75;;;9.57;55.64